Time;durP1;ratioP1;P1;durP2;ratioP2;P2;SDS_P1;SDS_P2;PMS_P1;PMS_P2;Temp;Humidity;BMP_temperature;BMP_pressure;BME280_temperature;BME280_humidity;BME280_pressure;Samples;Min_cycle;Max_cycle;Signal;HPM_P1;HPM_P2
2023/04/06 00:00:22;;;;;;;4.13;2.40;;;;;;;2.23;nan;100839.34;5020929;28;20036;-84
2023/04/06 00:02:47;;;;;;;4.35;3.00;;;;;;;2.26;nan;100824.31;5042727;28;20030;-83
2023/04/06 00:05:13;;;;;;;4.10;2.50;;;;;;;2.30;nan;100828.44;5030118;28;20038;-83
2023/04/06 00:07:38;;;;;;;5.45;2.92;;;;;;;2.38;nan;100825.38;5009447;28;20409;-83
2023/04/06 00:10:04;;;;;;;6.20;3.40;;;;;;;2.53;nan;100821.84;5028336;28;20037;-83
2023/04/06 00:12:29;;;;;;;7.57;3.67;;;;;;;2.66;nan;100821.09;5026780;28;20076;-83
2023/04/06 00:14:55;;;;;;;6.05;3.45;;;;;;;2.80;nan;100822.88;5028679;28;20037;-83
2023/04/06 00:17:20;;;;;;;6.22;3.63;;;;;;;2.93;nan;100816.78;5009454;28;20128;-84
2023/04/06 00:19:45;;;;;;;5.85;4.18;;;;;;;3.04;nan;100808.28;5023512;28;20118;-83
2023/04/06 00:22:11;;;;;;;4.85;3.47;;;;;;;3.13;nan;100810.31;5026864;28;20164;-83
2023/04/06 00:24:36;;;;;;;6.28;3.95;;;;;;;3.21;nan;100808.97;5010635;28;20036;-84
2023/04/06 00:27:01;;;;;;;5.60;3.90;;;;;;;3.25;nan;100813.91;5028509;28;20095;-84
2023/04/06 00:29:27;;;;;;;5.80;4.28;;;;;;;3.28;nan;100816.31;5027210;28;20065;-83
2023/04/06 00:31:52;;;;;;;5.18;3.50;;;;;;;3.27;nan;100800.78;5024217;28;20047;-83
2023/04/06 00:34:17;;;;;;;4.93;3.38;;;;;;;3.24;nan;100807.00;5009030;28;20034;-83
2023/04/06 00:36:43;;;;;;;5.03;3.05;;;;;;;3.16;nan;100806.66;5027685;28;20055;-83
2023/04/06 00:39:08;;;;;;;3.65;2.83;;;;;;;3.04;nan;100815.28;5030829;28;20038;-83
2023/04/06 00:41:33;;;;;;;3.63;2.55;;;;;;;2.89;nan;100809.25;5010971;28;20037;-84
2023/04/06 00:43:59;;;;;;;3.65;2.60;;;;;;;2.78;nan;100811.66;5010741;28;20044;-84
2023/04/06 00:46:24;;;;;;;3.72;2.33;;;;;;;2.68;nan;100804.41;5009298;28;20041;-84
2023/04/06 00:48:50;;;;;;;5.68;3.22;;;;;;;2.64;nan;100802.91;5028863;28;20044;-84
2023/04/06 00:51:15;;;;;;;4.97;3.28;;;;;;;2.54;nan;100807.00;5033720;28;20649;-83
2023/04/06 00:53:40;;;;;;;5.65;3.40;;;;;;;2.46;nan;100804.88;5027679;28;20037;-83
2023/04/06 00:56:06;;;;;;;7.50;3.83;;;;;;;2.37;nan;100800.22;5027591;28;20392;-83
2023/04/06 00:58:31;;;;;;;4.47;3.70;;;;;;;2.29;nan;100792.84;5014916;28;20470;-84
2023/04/06 01:00:58;;;;;;;7.10;4.65;;;;;;;2.24;nan;100791.44;5032329;28;20040;-84
2023/04/06 01:03:23;;;;;;;5.45;3.80;;;;;;;2.17;nan;100793.59;5013715;28;20033;-83
2023/04/06 01:05:48;;;;;;;5.40;3.50;;;;;;;2.07;nan;100784.59;5031066;28;20033;-83
2023/04/06 01:08:14;;;;;;;4.82;3.35;;;;;;;1.97;nan;100792.13;5032710;28;20033;-83
2023/04/06 01:10:39;;;;;;;3.88;2.80;;;;;;;1.90;nan;100796.03;5015055;28;20040;-83
2023/04/06 01:13:05;;;;;;;5.53;3.80;;;;;;;1.79;nan;100794.06;5031977;28;20523;-84
2023/04/06 01:15:33;;;;;;;5.28;3.80;;;;;;;1.65;nan;100791.41;5044960;28;20037;-84
2023/04/06 01:17:58;;;;;;;5.53;3.65;;;;;;;1.56;nan;100789.34;5033434;28;20100;-83
2023/04/06 01:20:24;;;;;;;4.70;3.17;;;;;;;1.47;nan;100790.69;5032019;28;20697;-84
2023/04/06 01:22:49;;;;;;;5.32;3.90;;;;;;;1.42;nan;100790.09;5030072;28;20642;-84
2023/04/06 01:25:14;;;;;;;3.75;2.90;;;;;;;1.34;nan;100780.13;5032564;28;20507;-84
2023/04/06 01:27:40;;;;;;;8.85;4.30;;;;;;;1.30;nan;100781.22;5031305;28;20546;-84
2023/04/06 01:30:06;;;;;;;7.00;4.38;;;;;;;1.29;nan;100782.16;5015358;28;20045;-84
2023/04/06 01:32:32;;;;;;;9.38;4.43;;;;;;;1.27;nan;100777.00;5013978;28;20044;-84
2023/04/06 01:34:57;;;;;;;5.43;3.97;;;;;;;1.27;nan;100781.41;5032902;28;20041;-83
2023/04/06 01:37:23;;;;;;;5.07;3.75;;;;;;;1.22;nan;100773.00;5033227;28;20506;-83
2023/04/06 01:39:48;;;;;;;6.70;4.57;;;;;;;1.10;nan;100778.88;5015484;28;20537;-83
2023/04/06 01:42:13;;;;;;;7.40;4.25;;;;;;;0.99;nan;100779.47;5033306;28;20450;-83
2023/04/06 01:44:38;;;;;;;6.88;4.13;;;;;;;0.89;nan;100773.94;5033030;28;20056;-84
2023/04/06 01:47:04;;;;;;;5.65;3.80;;;;;;;0.82;nan;100770.81;5034238;28;20083;-84
2023/04/06 01:49:29;;;;;;;4.50;3.53;;;;;;;0.75;nan;100773.84;5035010;28;20071;-83
2023/04/06 01:51:54;;;;;;;5.30;3.65;;;;;;;0.67;nan;100769.06;5033647;28;20120;-84
2023/04/06 01:54:20;;;;;;;5.78;3.20;;;;;;;0.65;nan;100767.47;5040043;28;20089;-83
2023/04/06 01:56:45;;;;;;;3.95;3.25;;;;;;;0.62;nan;100763.22;5029487;28;20431;-83
2023/04/06 01:59:11;;;;;;;5.60;4.15;;;;;;;0.60;nan;100760.72;5033856;28;20176;-84
2023/04/06 02:01:36;;;;;;;7.18;5.15;;;;;;;0.65;nan;100767.47;5032478;28;20030;-84
2023/04/06 02:04:01;;;;;;;5.25;4.07;;;;;;;0.66;nan;100764.75;5032572;28;20045;-83
2023/04/06 02:06:27;;;;;;;5.32;3.60;;;;;;;0.63;nan;100760.56;5032008;28;20442;-83
2023/04/06 02:08:52;;;;;;;5.55;4.10;;;;;;;0.57;nan;100760.91;5013499;28;20554;-83
2023/04/06 02:11:17;;;;;;;5.10;3.88;;;;;;;0.51;nan;100762.97;5031150;28;20041;-83
2023/04/06 02:13:43;;;;;;;6.32;4.55;;;;;;;0.42;nan;100759.09;5009921;28;20038;-84
2023/04/06 02:16:08;;;;;;;6.20;4.75;;;;;;;0.35;nan;100755.97;5034733;28;20052;-83
2023/04/06 02:18:33;;;;;;;6.10;4.35;;;;;;;0.34;nan;100751.69;5016449;28;20026;-83
2023/04/06 02:20:59;;;;;;;7.93;4.38;;;;;;;0.29;nan;100748.50;5030609;28;20037;-83
2023/04/06 02:23:24;;;;;;;5.80;4.00;;;;;;;0.26;nan;100745.22;5036483;28;20414;-83
2023/04/06 02:25:50;;;;;;;5.75;4.53;;;;;;;0.20;nan;100749.81;5030905;28;20066;-83
2023/04/06 02:28:15;;;;;;;6.25;4.00;;;;;;;0.18;nan;100743.84;5031690;28;20534;-83
2023/04/06 02:30:40;;;;;;;6.90;4.43;;;;;;;0.15;nan;100745.78;5013952;28;20121;-83
2023/04/06 02:33:06;;;;;;;6.47;4.13;;;;;;;0.12;nan;100749.38;5033542;28;20053;-83
2023/04/06 02:35:31;;;;;;;5.78;4.43;;;;;;;0.11;nan;100752.06;5032695;28;20029;-84
2023/04/06 02:37:57;;;;;;;6.72;4.65;;;;;;;0.09;nan;100741.72;5029991;28;20030;-83
2023/04/06 02:40:22;;;;;;;8.43;5.13;;;;;;;0.05;nan;100745.44;5031536;28;20057;-83
2023/04/06 02:42:47;;;;;;;6.78;4.78;;;;;;;-0.01;nan;100746.56;5030985;28;20491;-83
2023/04/06 02:45:12;;;;;;;5.82;4.63;;;;;;;-0.05;nan;100749.41;5030981;28;20091;-83
2023/04/06 02:47:38;;;;;;;6.30;4.57;;;;;;;-0.08;nan;100747.78;5023433;28;20041;-83
2023/04/06 02:50:04;;;;;;;6.15;4.60;;;;;;;-0.09;nan;100750.50;5009303;28;20495;-83
2023/04/06 02:52:29;;;;;;;8.05;5.35;;;;;;;-0.05;nan;100752.00;5015719;28;20343;-83
2023/04/06 02:54:55;;;;;;;8.48;5.25;;;;;;;-0.04;nan;100748.50;5012689;28;20033;-83
2023/04/06 02:57:20;;;;;;;5.80;4.63;;;;;;;0.05;nan;100752.38;5021191;28;20786;-83
2023/04/06 02:59:45;;;;;;;6.82;4.88;;;;;;;0.05;nan;100753.22;5011647;28;20489;-84
2023/04/06 03:02:10;;;;;;;;;;;;;;;0.06;nan;100752.28;5006533;28;20434;-83
2023/04/06 03:04:36;;;;;;;6.77;5.13;;;;;;;0.06;nan;100744.50;5029669;28;19943;-83
2023/04/06 03:07:01;;;;;;;7.73;5.17;;;;;;;0.16;nan;100750.06;5026716;28;20407;-83
2023/04/06 03:09:27;;;;;;;6.45;4.70;;;;;;;0.15;nan;100751.00;5004228;28;20033;-83
2023/04/06 03:11:52;;;;;;;5.93;4.03;;;;;;;0.14;nan;100752.75;5005732;28;20041;-83
2023/04/06 03:14:21;;;;;;;;;;;;;;;0.10;nan;100761.63;5038795;28;20030;-83
2023/04/06 03:16:47;;;;;;;7.75;5.03;;;;;;;0.01;nan;100761.25;5030527;28;19943;-83
2023/04/06 03:19:12;;;;;;;6.38;4.70;;;;;;;-0.08;nan;100753.00;5011676;28;20037;-83
2023/04/06 03:21:37;;;;;;;4.70;3.53;;;;;;;-0.11;nan;100758.34;5012842;28;20089;-83
2023/04/06 03:24:03;;;;;;;5.33;4.10;;;;;;;-0.05;nan;100757.19;5024314;28;20921;-83
2023/04/06 03:26:29;;;;;;;5.50;4.07;;;;;;;-0.07;nan;100759.03;5011308;28;20044;-83
2023/04/06 03:28:54;;;;;;;3.88;3.20;;;;;;;-0.09;nan;100761.72;5027813;28;20037;-83
2023/04/06 03:31:20;;;;;;;5.47;3.95;;;;;;;-0.12;nan;100756.69;5012651;28;20038;-83
2023/04/06 03:33:45;;;;;;;4.93;3.75;;;;;;;-0.14;nan;100757.66;5013201;28;20033;-84
2023/04/06 03:36:10;;;;;;;5.10;3.15;;;;;;;-0.18;nan;100762.19;5030289;28;20125;-83
2023/04/06 03:38:36;;;;;;;4.43;3.20;;;;;;;-0.21;nan;100764.94;5027580;28;20434;-84
2023/04/06 03:41:01;;;;;;;3.83;2.92;;;;;;;-0.26;nan;100759.16;5030903;28;20419;-84
2023/04/06 03:43:26;;;;;;;4.85;3.10;;;;;;;-0.30;nan;100762.81;5011762;28;20030;-84
2023/04/06 03:45:52;;;;;;;3.90;2.90;;;;;;;-0.31;nan;100761.09;5026604;28;20037;-84
2023/04/06 03:48:17;;;;;;;4.45;3.30;;;;;;;-0.38;nan;100765.78;5029630;28;20033;-83
2023/04/06 03:50:42;;;;;;;6.10;4.22;;;;;;;-0.45;nan;100770.44;5027416;28;20108;-84
2023/04/06 03:53:08;;;;;;;6.75;4.50;;;;;;;-0.47;nan;100767.06;5010451;28;20037;-83
2023/04/06 03:55:33;;;;;;;6.47;4.40;;;;;;;-0.48;nan;100762.81;5023868;28;20041;-84
2023/04/06 03:57:59;;;;;;;6.07;3.83;;;;;;;-0.51;nan;100759.50;5026613;28;20437;-84
2023/04/06 04:00:25;;;;;;;4.00;3.15;;;;;;;-0.51;nan;100770.72;5030209;28;20564;-83
2023/04/06 04:02:50;;;;;;;4.60;3.28;;;;;;;-0.55;nan;100766.63;5013095;28;20033;-84
2023/04/06 04:05:16;;;;;;;4.60;3.42;;;;;;;-0.57;nan;100771.03;5030388;28;20091;-83
2023/04/06 04:07:41;;;;;;;5.22;3.60;;;;;;;-0.61;nan;100773.88;5029764;28;20041;-84
2023/04/06 04:10:07;;;;;;;4.80;3.60;;;;;;;-0.63;nan;100775.69;5035508;28;20087;-84
2023/04/06 04:12:32;;;;;;;4.60;3.35;;;;;;;-0.66;nan;100769.72;5048654;28;20036;-83
2023/04/06 04:14:57;;;;;;;4.88;3.65;;;;;;;-0.69;nan;100777.66;5053691;28;20044;-84
2023/04/06 04:17:24;;;;;;;4.80;3.67;;;;;;;-0.73;nan;100785.69;5024025;28;20052;-84
2023/04/06 04:19:50;;;;;;;5.82;3.85;;;;;;;-0.76;nan;100781.47;5011539;28;20025;-84
2023/04/06 04:22:15;;;;;;;4.57;3.35;;;;;;;-0.73;nan;100783.09;5028769;28;20123;-83
2023/04/06 04:24:40;;;;;;;5.43;3.35;;;;;;;-0.73;nan;100785.69;5010376;28;20518;-83
2023/04/06 04:27:06;;;;;;;5.40;3.22;;;;;;;-0.73;nan;100798.66;5034053;28;20080;-83
2023/04/06 04:29:31;;;;;;;7.75;5.18;;;;;;;-0.71;nan;100783.84;5028037;28;20413;-83
2023/04/06 04:31:56;;;;;;;6.40;4.30;;;;;;;-0.72;nan;100793.38;5011315;28;20103;-84
2023/04/06 04:34:24;;;;;;;5.80;4.32;;;;;;;-0.71;nan;100794.25;5026499;28;20064;-83
2023/04/06 04:36:50;;;;;;;6.80;4.90;;;;;;;-0.67;nan;100791.44;5032928;28;20430;-84
2023/04/06 04:39:16;;;;;;;6.28;4.63;;;;;;;-0.65;nan;100792.16;5032773;28;20045;-83
2023/04/06 04:41:41;;;;;;;6.75;4.57;;;;;;;-0.63;nan;100792.09;5033641;28;20040;-83
2023/04/06 04:44:06;;;;;;;7.32;4.80;;;;;;;-0.60;nan;100797.13;5030679;28;20033;-84
2023/04/06 04:46:31;;;;;;;7.05;4.70;;;;;;;-0.60;nan;100798.91;5022618;28;20420;-83
2023/04/06 04:48:57;;;;;;;8.02;4.93;;;;;;;-0.58;nan;100797.06;5030040;28;20037;-84
2023/04/06 04:51:24;;;;;;;6.97;4.63;;;;;;;-0.60;nan;100799.75;5029275;28;20031;-84
2023/04/06 04:53:49;;;;;;;7.72;5.05;;;;;;;-0.57;nan;100801.34;5029176;28;20060;-83
2023/04/06 04:56:15;;;;;;;7.03;4.75;;;;;;;-0.57;nan;100793.56;5027673;28;20034;-84
2023/04/06 04:58:40;;;;;;;5.88;4.05;;;;;;;-0.58;nan;100795.31;5014440;28;20030;-84
2023/04/06 05:01:05;;;;;;;6.25;3.53;;;;;;;-0.60;nan;100804.94;5028742;28;20033;-83
2023/04/06 05:03:32;;;;;;;4.43;3.17;;;;;;;-0.60;nan;100802.34;5025469;28;20029;-85
2023/04/06 05:05:58;;;;;;;4.22;2.90;;;;;;;-0.61;nan;100805.03;5004556;28;20053;-85
2023/04/06 05:08:23;;;;;;;5.13;3.47;;;;;;;-0.65;nan;100805.16;5042713;28;20130;-85
2023/04/06 05:10:49;;;;;;;4.85;3.40;;;;;;;-0.65;nan;100806.91;5017269;28;20037;-84
2023/04/06 05:13:14;;;;;;;5.03;3.45;;;;;;;-0.62;nan;100808.53;5019633;28;20566;-84
2023/04/06 05:15:40;;;;;;;5.47;3.95;;;;;;;-0.61;nan;100805.84;5032286;28;20465;-84
2023/04/06 05:18:07;;;;;;;5.22;4.00;;;;;;;-0.56;nan;100816.03;5014990;28;20057;-84
2023/04/06 05:20:32;;;;;;;6.82;4.15;;;;;;;-0.54;nan;100812.44;5011348;28;20026;-84
2023/04/06 05:22:58;;;;;;;6.50;4.53;;;;;;;-0.48;nan;100811.28;5012265;28;20088;-84
2023/04/06 05:25:23;;;;;;;7.50;4.25;;;;;;;-0.41;nan;100812.69;5013664;28;20107;-84
2023/04/06 05:27:49;;;;;;;5.30;3.88;;;;;;;-0.36;nan;100818.50;5031417;28;20431;-84
2023/04/06 05:30:14;;;;;;;7.13;4.80;;;;;;;-0.32;nan;100811.41;5011202;28;20041;-84
2023/04/06 05:32:40;;;;;;;6.05;4.53;;;;;;;-0.29;nan;100814.69;5028731;28;20045;-83
2023/04/06 05:35:05;;;;;;;7.65;4.40;;;;;;;-0.19;nan;100816.81;5029023;28;20047;-84
2023/04/06 05:37:31;;;;;;;6.53;4.20;;;;;;;-0.08;nan;100820.56;5011161;28;20502;-84
2023/04/06 05:39:56;;;;;;;7.13;4.55;;;;;;;0.05;nan;100819.97;5011175;28;20037;-84
2023/04/06 05:42:22;;;;;;;6.18;4.50;;;;;;;0.16;nan;100823.69;5029827;28;20479;-84
2023/04/06 05:44:48;;;;;;;8.43;4.88;;;;;;;0.30;nan;100814.38;5015758;28;20037;-84
2023/04/06 05:47:13;;;;;;;6.82;4.38;;;;;;;0.47;nan;100822.13;5030387;28;20025;-84
2023/04/06 05:49:38;;;;;;;6.15;4.35;;;;;;;0.68;nan;100814.13;5032550;28;20033;-84
2023/04/06 05:52:04;;;;;;;4.45;3.50;;;;;;;0.86;nan;100820.97;5031937;28;20041;-84
2023/04/06 05:54:29;;;;;;;6.18;4.28;;;;;;;1.04;nan;100817.34;5032501;28;20478;-83
2023/04/06 05:56:55;;;;;;;9.07;5.68;;;;;;;1.36;nan;100819.09;5024067;28;20637;-84
2023/04/06 05:59:20;;;;;;;6.25;5.13;;;;;;;1.77;nan;100819.38;5014387;28;20039;-84
2023/04/06 06:01:45;;;;;;;8.05;4.95;;;;;;;2.21;nan;100807.28;5031606;28;20030;-84
2023/04/06 06:04:11;;;;;;;7.65;5.32;;;;;;;2.56;nan;100818.22;5031159;28;20053;-84
2023/04/06 06:06:36;;;;;;;8.27;4.93;;;;;;;2.87;nan;100817.16;5010827;28;20138;-84
2023/04/06 06:09:03;;;;;;;6.25;4.55;;;;;;;3.24;nan;100816.63;5033183;28;20057;-85
2023/04/06 06:11:29;;;;;;;6.70;4.88;;;;;;;3.58;nan;100816.16;5037201;28;20107;-85
2023/04/06 06:13:54;;;;;;;5.57;3.88;;;;;;;4.03;nan;100814.06;5028853;28;20037;-85
2023/04/06 06:16:20;;;;;;;5.10;3.42;;;;;;;4.43;nan;100816.59;5013739;28;20034;-84
2023/04/06 06:18:45;;;;;;;5.22;4.07;;;;;;;4.82;nan;100821.81;5015880;28;20022;-85
2023/04/06 06:21:14;;;;;;;4.68;3.30;;;;;;;5.30;nan;100820.09;5032426;28;20410;-85
2023/04/06 06:23:41;;;;;;;5.63;3.85;;;;;;;5.64;nan;100824.66;5033487;28;20025;-85
2023/04/06 06:26:06;;;;;;;7.95;4.75;;;;;;;5.83;nan;100817.09;5013320;28;20584;-85
2023/04/06 06:28:32;;;;;;;6.03;4.22;;;;;;;6.21;nan;100821.31;5014548;28;20102;-84
2023/04/06 06:30:58;;;;;;;4.72;3.60;;;;;;;6.73;nan;100825.19;5014769;28;20034;-84
2023/04/06 06:33:23;;;;;;;10.70;3.75;;;;;;;7.24;nan;100815.91;5023463;28;20026;-84
2023/04/06 06:35:50;;;;;;;7.30;4.28;;;;;;;7.67;nan;100815.06;5036369;28;20056;-84
2023/04/06 06:38:15;;;;;;;7.28;4.68;;;;;;;7.98;nan;100821.25;5013739;28;20045;-82
2023/04/06 06:40:41;;;;;;;8.38;5.38;;;;;;;8.16;nan;100816.25;5031723;28;20025;-84
2023/04/06 06:43:06;;;;;;;7.18;4.80;;;;;;;8.25;nan;100814.66;5012317;28;20052;-82
2023/04/06 06:45:31;;;;;;;6.57;4.70;;;;;;;8.44;nan;100811.34;5029302;28;20038;-82
2023/04/06 06:47:57;;;;;;;6.78;4.60;;;;;;;8.73;nan;100814.09;5032081;28;20041;-82
2023/04/06 06:50:22;;;;;;;8.73;5.45;;;;;;;8.93;nan;100822.91;5031614;28;20044;-82
2023/04/06 06:52:47;;;;;;;8.48;5.30;;;;;;;9.06;nan;100817.41;5014074;28;20458;-82
2023/04/06 06:55:13;;;;;;;8.10;5.07;;;;;;;9.22;nan;100815.06;5031489;28;20041;-83
2023/04/06 06:57:38;;;;;;;8.05;5.10;;;;;;;9.45;nan;100818.28;5014622;28;20087;-82
2023/04/06 07:00:05;;;;;;;10.70;6.30;;;;;;;9.70;nan;100810.78;5028105;28;20037;-82
2023/04/06 07:02:31;;;;;;;8.25;5.10;;;;;;;9.72;nan;100822.88;5030239;28;20042;-83
2023/04/06 07:04:56;;;;;;;7.72;5.40;;;;;;;9.93;nan;100816.63;5014710;28;20036;-82
2023/04/06 07:07:22;;;;;;;6.20;4.25;;;;;;;10.21;nan;100818.41;5031469;28;20029;-82
2023/04/06 07:09:47;;;;;;;7.82;5.57;;;;;;;10.36;nan;100815.34;5032035;28;20033;-83
2023/04/06 07:12:12;;;;;;;6.78;4.80;;;;;;;10.47;nan;100814.34;5032703;28;20068;-82
2023/04/06 07:14:37;;;;;;;9.07;5.68;;;;;;;10.63;nan;100815.41;5033565;28;20078;-82
2023/04/06 07:17:03;;;;;;;9.55;5.55;;;;;;;10.64;nan;100824.16;5034228;28;20368;-82
2023/04/06 07:19:28;;;;;;;6.93;5.65;;;;;;;10.82;nan;100808.34;5032694;28;20044;-82
2023/04/06 07:21:54;;;;;;;8.50;6.15;;;;;;;10.97;nan;100814.00;5033623;28;20056;-82
2023/04/06 07:24:19;;;;;;;6.95;4.95;;;;;;;11.16;nan;100815.72;5032001;28;20036;-82
2023/04/06 07:26:45;;;;;;;8.27;5.22;;;;;;;11.46;nan;100817.16;5029313;28;20040;-82
2023/04/06 07:29:10;;;;;;;8.10;5.47;;;;;;;11.59;nan;100819.47;5034640;28;20048;-84
2023/04/06 07:31:35;;;;;;;8.40;5.43;;;;;;;11.69;nan;100818.38;5018680;28;20128;-83
2023/04/06 07:34:01;;;;;;;7.22;5.22;;;;;;;11.95;nan;100814.16;5016225;28;20041;-83
2023/04/06 07:36:27;;;;;;;6.63;4.72;;;;;;;12.28;nan;100817.91;5033228;28;20045;-83
2023/04/06 07:38:52;;;;;;;6.90;4.68;;;;;;;12.69;nan;100818.13;5034941;28;20030;-83
2023/04/06 07:41:17;;;;;;;8.90;5.97;;;;;;;12.95;nan;100816.25;5034118;28;20049;-83
2023/04/06 07:43:43;;;;;;;9.18;5.85;;;;;;;13.22;nan;100808.19;5013602;28;20034;-83
2023/04/06 07:46:08;;;;;;;9.63;6.00;;;;;;;13.39;nan;100817.88;5014369;28;20057;-82
2023/04/06 07:48:34;;;;;;;8.77;6.15;;;;;;;13.33;nan;100810.59;5030215;28;20683;-82
2023/04/06 07:51:03;;;;;;;8.35;6.32;;;;;;;13.28;nan;100820.88;5028769;28;20469;-84
2023/04/06 07:53:29;;;;;;;10.10;6.53;;;;;;;13.12;nan;100814.47;5021534;28;20052;-82
2023/04/06 07:55:55;;;;;;;8.60;6.32;;;;;;;13.01;nan;100819.25;5030945;28;20037;-82
2023/04/06 07:58:20;;;;;;;9.35;6.50;;;;;;;12.98;nan;100819.56;5029961;28;20026;-82
2023/04/06 08:00:46;;;;;;;9.98;6.50;;;;;;;13.09;nan;100814.81;5013075;28;20083;-83
2023/04/06 08:03:11;;;;;;;8.05;5.72;;;;;;;13.35;nan;100820.06;5031251;28;20097;-82
2023/04/06 08:05:36;;;;;;;9.00;6.60;;;;;;;13.84;nan;100821.94;5029191;28;20095;-82
2023/04/06 08:08:02;;;;;;;9.45;6.60;;;;;;;14.01;nan;100822.75;5030375;28;20395;-82
2023/04/06 08:10:28;;;;;;;9.75;6.47;;;;;;;14.29;nan;100830.38;5035034;28;20124;-83
2023/04/06 08:12:53;;;;;;;9.98;6.85;;;;;;;14.32;nan;100825.53;5029078;28;20041;-82
2023/04/06 08:15:18;;;;;;;7.05;5.50;;;;;;;14.38;nan;100829.38;5011713;28;20045;-83
2023/04/06 08:17:44;;;;;;;8.82;6.45;;;;;;;14.38;nan;100824.06;5031586;28;20108;-82
2023/04/06 08:20:09;;;;;;;8.52;6.15;;;;;;;14.47;nan;100828.38;5028905;28;20033;-83
2023/04/06 08:22:35;;;;;;;7.50;5.95;;;;;;;15.00;nan;100828.72;5027791;28;20061;-82
2023/04/06 08:25:00;;;;;;;7.10;5.55;;;;;;;15.47;nan;100822.47;5028797;28;20044;-82
2023/04/06 08:27:26;;;;;;;10.50;7.03;;;;;;;15.76;nan;100819.13;5028831;28;20094;-83
2023/04/06 08:29:51;;;;;;;7.88;5.93;;;;;;;15.95;nan;100820.47;5025924;28;20529;-82
2023/04/06 08:32:16;;;;;;;8.75;6.20;;;;;;;16.20;nan;100821.06;5028178;28;20048;-83
2023/04/06 08:34:42;;;;;;;8.35;6.90;;;;;;;16.29;nan;100817.31;5033578;28;20033;-84
2023/04/06 08:37:07;;;;;;;8.60;6.55;;;;;;;16.19;nan;100821.28;5036095;28;20046;-84
2023/04/06 08:39:33;;;;;;;6.90;5.82;;;;;;;16.22;nan;100823.56;5030899;28;20038;-84
2023/04/06 08:42:02;;;;;;;10.90;6.03;;;;;;;16.28;nan;100820.16;5031253;28;20525;-83
2023/04/06 08:44:29;;;;;;;8.23;6.40;;;;;;;16.53;nan;100826.91;5007959;28;20053;-84
2023/04/06 08:46:54;;;;;;;8.15;6.40;;;;;;;16.90;nan;100811.84;5008535;28;20046;-84
2023/04/06 08:49:20;;;;;;;10.68;6.57;;;;;;;17.24;nan;100821.06;5028210;28;20034;-84
2023/04/06 08:51:47;;;;;;;9.48;7.28;;;;;;;17.36;nan;100816.06;5027206;28;20057;-84
2023/04/06 08:54:12;;;;;;;9.23;6.90;;;;;;;17.63;nan;100811.81;5010975;28;20026;-84
2023/04/06 08:56:39;;;;;;;8.65;6.55;;;;;;;17.88;nan;100812.28;5007918;28;20127;-84
2023/04/06 08:59:06;;;;;;;7.72;6.07;;;;;;;17.75;nan;100814.78;5027914;28;20026;-84
2023/04/06 09:01:38;;;;;;;9.10;6.00;;;;;;;17.49;nan;100810.00;5021164;28;20037;-84
2023/04/06 09:04:08;;;;;;;8.40;6.07;;;;;;;17.40;nan;100806.66;5007599;28;20061;-84
2023/04/06 09:06:34;;;;;;;6.07;5.40;;;;;;;17.67;nan;100807.75;5027820;28;20443;-84
2023/04/06 09:08:59;;;;;;;9.27;6.40;;;;;;;17.77;nan;100802.06;5031923;28;20049;-84
2023/04/06 09:11:24;;;;;;;7.28;5.90;;;;;;;17.67;nan;100807.75;5028983;28;20034;-84
2023/04/06 09:13:52;;;;;;;11.20;6.20;;;;;;;17.86;nan;100808.97;5008776;28;20040;-83
2023/04/06 09:16:18;;;;;;;8.43;6.38;;;;;;;18.04;nan;100811.16;5031944;28;20175;-84
2023/04/06 09:18:44;;;;;;;8.45;5.80;;;;;;;18.19;nan;100811.91;5018446;28;20099;-83
2023/04/06 09:21:10;;;;;;;8.32;6.18;;;;;;;18.66;nan;100813.03;5049795;28;20021;-82
2023/04/06 09:23:36;;;;;;;9.48;5.63;;;;;;;19.16;nan;100807.47;5039679;28;20033;-83
2023/04/06 09:26:16;;;;;;;7.95;6.22;;;;;;;19.37;nan;100811.88;5035989;28;20099;-83
2023/04/06 09:28:55;;;;;;;7.43;5.93;;;;;;;19.69;nan;100801.47;5034975;28;20182;-84
2023/04/06 09:31:25;;;;;;;7.93;5.80;;;;;;;20.02;nan;100800.63;5017047;28;20095;-83
2023/04/06 09:33:54;;;;;;;9.65;6.18;;;;;;;20.16;nan;100794.19;5014933;28;20402;-84
2023/04/06 09:36:30;;;;;;;7.53;6.00;;;;;;;20.37;nan;100803.88;5030463;28;20029;-84
2023/04/06 09:38:59;;;;;;;7.88;6.35;;;;;;;20.34;nan;100804.31;5012824;28;20034;-84
2023/04/06 09:41:27;;;;;;;8.35;5.68;;;;;;;20.41;nan;100797.06;5029189;28;20038;-83
2023/04/06 09:44:05;;;;;;;7.03;6.07;;;;;;;20.31;nan;100805.56;5027640;28;20117;-84
2023/04/06 09:46:33;;;;;;;8.57;5.85;;;;;;;20.65;nan;100808.19;5027992;28;20040;-85
2023/04/06 09:49:01;;;;;;;7.45;5.97;;;;;;;21.20;nan;100798.66;5012732;28;20046;-86
2023/04/06 09:51:31;;;;;;;8.15;5.53;;;;;;;21.71;nan;100791.50;5028963;28;20038;-85
2023/04/06 09:54:01;;;;;;;9.18;5.63;;;;;;;22.04;nan;100803.88;5030865;28;20037;-85
2023/04/06 09:56:30;;;;;;;9.20;6.32;;;;;;;21.82;nan;100796.19;5001164;28;20588;-84
2023/04/06 09:59:02;;;;;;;7.28;5.65;;;;;;;21.93;nan;100797.38;5030170;28;20049;-84
2023/04/06 10:01:30;;;;;;;6.70;5.13;;;;;;;22.29;nan;100795.00;5030230;28;20029;-84
2023/04/06 10:04:07;;;;;;;9.23;6.25;;;;;;;22.49;nan;100801.00;5035731;28;20042;-85
2023/04/06 10:06:35;;;;;;;8.88;6.43;;;;;;;22.43;nan;100793.81;5015545;28;20030;-85
2023/04/06 10:09:04;;;;;;;7.82;5.65;;;;;;;22.37;nan;100792.00;5034525;28;20041;-84
2023/04/06 10:11:36;;;;;;;8.10;6.28;;;;;;;22.26;nan;100799.78;5026903;28;20034;-85
2023/04/06 10:14:01;;;;;;;7.90;5.93;;;;;;;22.58;nan;100793.44;5027609;28;21107;-85
2023/04/06 10:16:29;;;;;;;7.78;5.32;;;;;;;22.86;nan;100790.22;5031847;28;20702;-83
2023/04/06 10:19:05;;;;;;;7.82;5.95;;;;;;;23.13;nan;100792.59;5027653;28;20049;-84
2023/04/06 10:21:32;;;;;;;5.65;4.72;;;;;;;23.08;nan;100791.38;5029623;28;20451;-84
2023/04/06 10:24:00;;;;;;;8.07;5.47;;;;;;;23.55;nan;100788.03;5015254;28;20056;-83
2023/04/06 10:26:26;;;;;;;6.72;5.30;;;;;;;23.52;nan;100788.47;5027316;28;20173;-83
2023/04/06 10:28:55;;;;;;;8.63;6.15;;;;;;;23.82;nan;100774.94;5031630;28;20108;-83
2023/04/06 10:31:26;;;;;;;7.00;5.75;;;;;;;23.67;nan;100785.38;5033223;28;20037;-84
2023/04/06 10:34:02;;;;;;;6.80;5.80;;;;;;;23.57;nan;100779.69;5036749;28;20565;-83
2023/04/06 10:36:37;;;;;;;6.25;4.88;;;;;;;23.89;nan;100780.25;5031853;28;20045;-83
2023/04/06 10:39:06;;;;;;;8.48;6.00;;;;;;;24.14;nan;100774.59;5031648;28;20030;-83
2023/04/06 10:41:34;;;;;;;7.75;5.25;;;;;;;23.25;nan;100783.47;5030046;28;20057;-83
2023/04/06 10:44:00;;;;;;;8.13;5.28;;;;;;;23.35;nan;100782.91;5029461;28;20044;-83
2023/04/06 10:46:28;;;;;;;6.97;5.22;;;;;;;23.13;nan;100782.63;5001560;28;20045;-82
2023/04/06 10:48:54;;;;;;;6.80;5.30;;;;;;;23.14;nan;100786.94;5032554;28;20033;-82
2023/04/06 10:51:26;;;;;;;6.53;4.72;;;;;;;23.01;nan;100777.16;5030858;28;20042;-82
2023/04/06 10:53:53;;;;;;;7.03;4.90;;;;;;;23.01;nan;100770.97;5023742;28;20048;-82
2023/04/06 10:56:22;;;;;;;10.07;5.68;;;;;;;23.23;nan;100773.97;5028502;28;20076;-83
2023/04/06 10:58:51;;;;;;;7.13;5.35;;;;;;;23.31;nan;100773.63;5024219;28;20446;-83
2023/04/06 11:01:20;;;;;;;7.68;5.88;;;;;;;23.53;nan;100768.53;5024664;28;20124;-83
2023/04/06 11:03:48;;;;;;;6.80;5.30;;;;;;;23.97;nan;100769.09;5013196;28;20041;-84
2023/04/06 11:06:20;;;;;;;7.55;5.68;;;;;;;24.45;nan;100759.06;5012318;28;20037;-84
2023/04/06 11:08:45;;;;;;;7.97;5.15;;;;;;;24.56;nan;100755.53;5015247;28;20038;-84
2023/04/06 11:11:15;;;;;;;8.13;5.20;;;;;;;24.50;nan;100756.47;5034409;28;20072;-84
2023/04/06 11:13:42;;;;;;;6.63;4.60;;;;;;;24.64;nan;100754.34;5034683;28;20058;-84
2023/04/06 11:16:21;;;;;;;6.88;4.47;;;;;;;24.16;nan;100750.88;5035529;28;20039;-84
2023/04/06 11:18:51;;;;;;;7.13;4.70;;;;;;;24.29;nan;100741.72;5030704;28;20048;-84
2023/04/06 11:21:18;;;;;;;5.20;4.10;;;;;;;24.50;nan;100749.22;5044377;28;20045;-84
2023/04/06 11:23:43;;;;;;;4.93;3.78;;;;;;;24.92;nan;100738.13;5034642;28;20041;-83
2023/04/06 11:26:12;;;;;;;5.75;4.07;;;;;;;24.83;nan;100736.06;5020284;28;20037;-83
2023/04/06 11:28:39;;;;;;;5.32;3.60;;;;;;;24.35;nan;100729.94;5035835;28;20073;-84
2023/04/06 11:31:06;;;;;;;4.90;3.47;;;;;;;23.69;nan;100724.66;5035925;28;20125;-84
2023/04/06 11:33:36;;;;;;;4.25;3.05;;;;;;;23.67;nan;100721.38;5018302;28;20033;-83
2023/04/06 11:36:02;;;;;;;5.65;3.47;;;;;;;23.10;nan;100729.94;5033674;28;21771;-84
2023/04/06 11:38:27;;;;;;;5.05;4.05;;;;;;;23.50;nan;100720.41;5019411;28;20038;-84
2023/04/06 11:41:00;;;;;;;3.42;2.90;;;;;;;23.68;nan;100717.63;5036495;28;20037;-84